Time;durP1;ratioP1;P1;durP2;ratioP2;P2;SDS_P1;SDS_P2;PMS_P1;PMS_P2;Temp;Humidity;BMP_temperature;BMP_pressure;BME280_temperature;BME280_humidity;BME280_pressure;Samples;Min_cycle;Max_cycle;Signal;HPM_P1;HPM_P2
2021/07/19 00:02:13;;;;;;;;;;;16.50;99.90;;;;;;5073123;28;19935;-89
2021/07/19 00:04:40;;;;;;;;;;;16.50;99.90;;;;;;5093495;28;20303;-87
2021/07/19 00:07:06;;;;;;;;;;;16.50;99.90;;;;;;5092119;28;19932;-87
2021/07/19 00:09:32;;;;;;;;;;;16.40;99.90;;;;;;5093324;28;19993;-87
2021/07/19 00:11:57;;;;;;;;;;;16.30;99.90;;;;;;5074419;28;19958;-87
2021/07/19 00:14:23;;;;;;;;;;;16.30;99.90;;;;;;5093562;28;19924;-87
2021/07/19 00:16:49;;;;;;;;;;;16.20;99.90;;;;;;5087341;28;20380;-87
2021/07/19 00:19:14;;;;;;;;;;;16.20;99.90;;;;;;5073774;28;20417;-87
2021/07/19 00:21:40;;;;;;;;;;;16.10;99.90;;;;;;5093064;28;19928;-87
2021/07/19 00:24:06;;;;;;;;;;;16.10;99.90;;;;;;5089834;28;19930;-87
2021/07/19 00:26:32;;;;;;;;;;;16.00;99.90;;;;;;5092248;28;20011;-87
2021/07/19 00:28:57;;;;;;;;;;;15.90;99.90;;;;;;5074051;28;19935;-87
2021/07/19 00:31:23;;;;;;;;;;;15.90;99.90;;;;;;5058758;28;19973;-87
2021/07/19 00:33:49;;;;;;;;;;;15.90;99.90;;;;;;5090949;28;19932;-87
2021/07/19 00:36:15;;;;;;;;;;;15.90;99.90;;;;;;5057604;28;20014;-87
2021/07/19 00:38:40;;;;;;;;;;;15.90;99.90;;;;;;5074490;28;19928;-87
2021/07/19 00:41:06;;;;;;;;;;;15.90;99.90;;;;;;5073349;28;19928;-87
2021/07/19 00:43:32;;;;;;;;;;;15.90;99.90;;;;;;5057791;28;20351;-87
2021/07/19 00:45:57;;;;;;;;;;;15.80;99.90;;;;;;5091739;28;20395;-86
2021/07/19 00:48:24;;;;;;;;;;;15.80;99.90;;;;;;5057758;28;19928;-86
2021/07/19 00:50:49;;;;;;;;;;;15.80;99.90;;;;;;5091568;28;20019;-87
2021/07/19 00:53:15;;;;;;;;;;;15.80;99.90;;;;;;5091610;28;20038;-86
2021/07/19 00:55:42;;;;;;;;;;;15.70;99.90;;;;;;5092225;28;19928;-87
2021/07/19 00:58:09;;;;;;;;;;;15.70;99.90;;;;;;5092143;28;20073;-87
2021/07/19 01:00:37;;;;;;;;;;;15.70;99.90;;;;;;5062411;28;19928;-87
2021/07/19 01:03:06;;;;;;;;;;;15.70;99.90;;;;;;5073821;28;20391;-87
2021/07/19 01:05:34;;;;;;;;;;;15.70;99.90;;;;;;5091898;28;19924;-88
2021/07/19 01:08:02;;;;;;;;;;;15.60;99.90;;;;;;5091111;28;20457;-87
2021/07/19 01:10:28;;;;;;;;;;;15.60;99.90;;;;;;5073905;28;19953;-87
2021/07/19 01:12:54;;;;;;;;;;;15.50;99.90;;;;;;5056415;28;20285;-88
2021/07/19 01:15:21;;;;;;;;;;;15.50;99.90;;;;;;5073849;28;19931;-87
2021/07/19 01:17:47;;;;;;;;;;;15.50;99.90;;;;;;5074084;28;19924;-87
2021/07/19 01:20:13;;;;;;;;;;;15.50;99.90;;;;;;5073045;28;20010;-87
2021/07/19 01:22:58;;;;;;;;;;;15.50;99.90;;;;;;5073738;28;20007;-87
2021/07/19 01:25:40;;;;;;;;;;;15.50;99.90;;;;;;5065973;28;19930;-87
2021/07/19 01:28:05;;;;;;;;;;;15.50;99.90;;;;;;5087739;28;19927;-87
2021/07/19 01:30:32;;;;;;;;;;;15.50;99.90;;;;;;5086335;28;20019;-87
2021/07/19 01:32:59;;;;;;;;;;;15.50;99.90;;;;;;5056811;28;19959;-89
2021/07/19 01:35:26;;;;;;;;;;;15.60;99.90;;;;;;5074598;28;20018;-88
2021/07/19 01:37:51;;;;;;;;;;;15.70;99.90;;;;;;5078720;28;20300;-88
2021/07/19 01:40:18;;;;;;;;;;;15.70;99.90;;;;;;5090900;28;19935;-87
2021/07/19 01:42:44;;;;;;;;;;;15.70;99.90;;;;;;5082208;28;19924;-89
2021/07/19 01:45:10;;;;;;;;;;;15.70;99.90;;;;;;5073736;28;19924;-89
2021/07/19 01:47:37;;;;;;;;;;;15.80;99.90;;;;;;5066407;28;20300;-89
2021/07/19 01:50:05;;;;;;;;;;;15.80;99.90;;;;;;5091006;28;20407;-89
2021/07/19 01:52:31;;;;;;;;;;;15.80;99.90;;;;;;5089879;28;19932;-89
2021/07/19 01:54:56;;;;;;;;;;;15.80;99.90;;;;;;5073489;28;19924;-89
2021/07/19 01:57:23;;;;;;;;;;;15.80;99.90;;;;;;5069495;28;19931;-89
2021/07/19 01:59:49;;;;;;;;;;;15.90;99.90;;;;;;5057685;28;19928;-89
2021/07/19 02:02:18;;;;;;;;;;;15.80;99.90;;;;;;5079859;28;19989;-90
2021/07/19 02:04:44;;;;;;;;;;;15.90;99.90;;;;;;5057970;28;19986;-88
2021/07/19 02:07:11;;;;;;;;;;;15.80;99.90;;;;;;5069300;28;20396;-88
2021/07/19 02:09:37;;;;;;;;;;;15.80;99.90;;;;;;5066904;28;20306;-90
2021/07/19 02:12:03;;;;;;;;;;;15.90;99.90;;;;;;5073318;28;19924;-87
2021/07/19 02:14:29;;;;;;;;;;;15.80;99.90;;;;;;5073015;28;20001;-88
2021/07/19 02:16:56;;;;;;;;;;;15.80;99.90;;;;;;5072442;28;19931;-88
2021/07/19 02:19:23;;;;;;;;;;;15.80;99.90;;;;;;5071673;28;19986;-87
2021/07/19 02:21:49;;;;;;;;;;;15.70;99.90;;;;;;5072348;28;19928;-87
2021/07/19 02:24:16;;;;;;;;;;;15.70;99.90;;;;;;5089507;28;20220;-86
2021/07/19 02:26:41;;;;;;;;;;;15.70;99.90;;;;;;5056235;28;19940;-87
2021/07/19 02:29:07;;;;;;;;;;;15.70;99.90;;;;;;5089651;28;19928;-88
2021/07/19 02:31:33;;;;;;;;;;;15.80;99.90;;;;;;5056829;28;20387;-87
2021/07/19 02:33:59;;;;;;;;;;;15.70;99.90;;;;;;5088369;28;19970;-87
2021/07/19 02:36:25;;;;;;;;;;;15.70;99.90;;;;;;5055810;28;19934;-87
2021/07/19 02:38:52;;;;;;;;;;;15.80;99.90;;;;;;5071964;28;19928;-87
2021/07/19 02:41:19;;;;;;;;;;;15.80;99.90;;;;;;5088835;28;19924;-88
2021/07/19 02:43:48;;;;;;;;;;;15.80;99.90;;;;;;5090216;28;20034;-87
2021/07/19 02:46:15;;;;;;;;;;;15.90;99.90;;;;;;5065651;28;20317;-86
2021/07/19 02:48:42;;;;;;;;;;;15.90;99.90;;;;;;5071860;28;19957;-86
2021/07/19 02:51:09;;;;;;;;;;;15.90;99.90;;;;;;5054550;28;19930;-87
2021/07/19 02:53:36;;;;;;;;;;;15.90;99.90;;;;;;5071895;28;19924;-87
2021/07/19 02:56:03;;;;;;;;;;;15.90;99.90;;;;;;5054570;28;19960;-87
2021/07/19 02:58:29;;;;;;;;;;;16.00;99.90;;;;;;5075066;28;19928;-87
2021/07/19 03:00:55;;;;;;;;;;;16.00;99.90;;;;;;5074377;28;19931;-87
2021/07/19 03:03:23;;;;;;;;;;;15.90;99.90;;;;;;5056842;28;20463;-88
2021/07/19 03:05:51;;;;;;;;;;;15.90;99.90;;;;;;5071663;28;20433;-87
2021/07/19 03:08:17;;;;;;;;;;;15.90;99.90;;;;;;5070971;28;19963;-87
2021/07/19 03:10:44;;;;;;;;;;;15.90;99.90;;;;;;5071398;28;19931;-86
2021/07/19 03:13:11;;;;;;;;;;;15.80;99.90;;;;;;5070560;28;19934;-87
2021/07/19 03:15:38;;;;;;;;;;;15.80;99.90;;;;;;5057961;28;19930;-87
2021/07/19 03:18:05;;;;;;;;;;;15.90;99.90;;;;;;5088854;28;19924;-89
2021/07/19 03:20:35;;;;;;;;;;;15.90;99.90;;;;;;5072146;28;20039;-89
2021/07/19 03:23:05;;;;;;;;;;;15.90;99.90;;;;;;5089842;28;19932;-88
2021/07/19 03:25:31;;;;;;;;;;;16.00;99.90;;;;;;5061801;28;19942;-87
2021/07/19 03:28:00;;;;;;;;;;;16.00;99.90;;;;;;5071653;28;20384;-87
2021/07/19 03:30:25;;;;;;;;;;;16.00;99.90;;;;;;5076971;28;20367;-87
2021/07/19 03:32:51;;;;;;;;;;;16.00;99.90;;;;;;5054975;28;19973;-86
2021/07/19 03:35:18;;;;;;;;;;;16.00;99.90;;;;;;5071244;28;19928;-86
2021/07/19 03:37:44;;;;;;;;;;;16.00;99.90;;;;;;5088489;28;20019;-87
2021/07/19 03:40:11;;;;;;;;;;;16.00;99.90;;;;;;5056799;28;19967;-87
2021/07/19 03:42:37;;;;;;;;;;;16.00;99.90;;;;;;5088820;28;19928;-88
2021/07/19 03:45:04;;;;;;;;;;;16.10;99.90;;;;;;5059034;28;19928;-88
2021/07/19 03:47:32;;;;;;;;;;;16.10;99.90;;;;;;5080360;28;19924;-86
2021/07/19 03:49:58;;;;;;;;;;;16.10;99.90;;;;;;5089212;28;20016;-87
2021/07/19 03:52:24;;;;;;;;;;;16.10;99.90;;;;;;5088874;28;20011;-86
2021/07/19 03:54:50;;;;;;;;;;;16.10;99.90;;;;;;5089219;28;20390;-86
2021/07/19 03:57:16;;;;;;;;;;;16.10;99.90;;;;;;5054120;28;19949;-87
2021/07/19 03:59:42;;;;;;;;;;;16.10;99.90;;;;;;5089429;28;19928;-86
2021/07/19 04:02:11;;;;;;;;;;;16.20;99.90;;;;;;5070173;28;19986;-88
2021/07/19 04:04:40;;;;;;;;;;;16.10;99.90;;;;;;5071109;28;19924;-86
2021/07/19 04:07:12;;;;;;;;;;;16.20;99.90;;;;;;5088317;28;19924;-87
2021/07/19 04:09:38;;;;;;;;;;;16.20;99.90;;;;;;5088935;28;19981;-86
2021/07/19 04:12:05;;;;;;;;;;;16.30;99.90;;;;;;5089239;28;19931;-88
2021/07/19 04:14:31;;;;;;;;;;;16.30;99.90;;;;;;5088690;28;19982;-86
2021/07/19 04:16:57;;;;;;;;;;;16.30;99.90;;;;;;5073260;28;19924;-87
2021/07/19 04:19:23;;;;;;;;;;;16.30;99.90;;;;;;5069955;28;19930;-87
2021/07/19 04:21:51;;;;;;;;;;;16.30;99.90;;;;;;5071570;28;19931;-87
2021/07/19 04:24:17;;;;;;;;;;;16.40;99.90;;;;;;5070176;28;20027;-87
2021/07/19 04:26:42;;;;;;;;;;;16.40;99.90;;;;;;5066457;28;20027;-88
2021/07/19 04:29:08;;;;;;;;;;;16.40;99.90;;;;;;5078322;28;20011;-89
2021/07/19 04:31:36;;;;;;;;;;;16.30;99.90;;;;;;5089205;28;19924;-88
2021/07/19 04:34:02;;;;;;;;;;;16.40;99.90;;;;;;5070960;28;19924;-88
2021/07/19 04:36:28;;;;;;;;;;;16.40;99.90;;;;;;5053120;28;19956;-87
2021/07/19 04:38:54;;;;;;;;;;;16.40;99.90;;;;;;5062731;28;19935;-88
2021/07/19 04:41:20;;;;;;;;;;;16.30;99.90;;;;;;5070125;28;20322;-89
2021/07/19 04:43:47;;;;;;;;;;;16.40;99.90;;;;;;5073055;28;19927;-88
2021/07/19 04:46:13;;;;;;;;;;;16.30;99.90;;;;;;5073621;28;19937;-88
2021/07/19 04:48:40;;;;;;;;;;;16.30;99.90;;;;;;5092051;28;19977;-88
2021/07/19 04:51:05;;;;;;;;;;;16.30;99.90;;;;;;5091962;28;19928;-88
2021/07/19 04:53:31;;;;;;;;;;;16.40;99.90;;;;;;5073383;28;20430;-88
2021/07/19 04:55:58;;;;;;;;;;;16.40;99.90;;;;;;5074720;28;19924;-87
2021/07/19 04:58:25;;;;;;;;;;;16.40;99.90;;;;;;5064062;28;19924;-86
2021/07/19 05:00:55;;;;;;;;;;;16.40;99.90;;;;;;5074008;28;20372;-87
2021/07/19 05:03:23;;;;;;;;;;;16.40;99.90;;;;;;5068586;28;19928;-88
2021/07/19 05:05:49;;;;;;;;;;;16.40;99.90;;;;;;5073528;28;19932;-87
2021/07/19 05:08:18;;;;;;;;;;;16.40;99.90;;;;;;5091371;28;20451;-87
2021/07/19 05:10:44;;;;;;;;;;;16.50;99.90;;;;;;5091251;28;20386;-87
2021/07/19 05:13:11;;;;;;;;;;;16.50;99.90;;;;;;5073924;28;19924;-88
2021/07/19 05:15:38;;;;;;;;;;;16.50;99.90;;;;;;5073564;28;19928;-87
2021/07/19 05:18:04;;;;;;;;;;;16.50;99.90;;;;;;5073994;28;19924;-88
2021/07/19 05:20:30;;;;;;;;;;;16.60;99.90;;;;;;5090747;28;19924;-87
2021/07/19 05:22:59;;;;;;;;;;;16.60;99.90;;;;;;5091795;28;19924;-88
2021/07/19 05:25:26;;;;;;;;;;;16.70;99.90;;;;;;5090827;28;19931;-88
2021/07/19 05:27:58;;;;;;;;;;;16.70;99.90;;;;;;5068823;28;19928;-89
2021/07/19 05:30:23;;;;;;;;;;;16.70;99.90;;;;;;5088136;28;19924;-89
2021/07/19 05:32:50;;;;;;;;;;;16.70;99.90;;;;;;5073549;28;20022;-88
2021/07/19 05:35:16;;;;;;;;;;;16.80;99.90;;;;;;5087013;28;20027;-88
2021/07/19 05:37:42;;;;;;;;;;;16.80;99.90;;;;;;5053551;28;19931;-89
2021/07/19 05:40:08;;;;;;;;;;;16.80;99.90;;;;;;5090787;28;19924;-88
2021/07/19 05:42:34;;;;;;;;;;;16.80;99.90;;;;;;5084238;28;19932;-88
2021/07/19 05:45:00;;;;;;;;;;;16.80;99.90;;;;;;5073497;28;19924;-88
2021/07/19 05:47:26;;;;;;;;;;;16.90;99.90;;;;;;5060835;28;19924;-88
2021/07/19 05:49:52;;;;;;;;;;;16.80;99.90;;;;;;5058571;28;19925;-88
2021/07/19 05:52:17;;;;;;;;;;;16.90;99.90;;;;;;5072780;28;20023;-89
2021/07/19 05:54:43;;;;;;;;;;;16.90;99.90;;;;;;5072068;28;19924;-88
2021/07/19 05:57:09;;;;;;;;;;;17.00;99.90;;;;;;5073029;28;19971;-87
2021/07/19 05:59:34;;;;;;;;;;;16.90;99.90;;;;;;5072428;28;19960;-87
2021/07/19 06:02:00;;;;;;;;;;;17.00;99.90;;;;;;5073037;28;20167;-87
2021/07/19 06:04:26;;;;;;;;;;;17.00;99.90;;;;;;5090152;28;20003;-87
2021/07/19 06:06:51;;;;;;;;;;;17.00;99.90;;;;;;5072849;28;19950;-87
2021/07/19 06:09:18;;;;;;;;;;;17.00;99.90;;;;;;5056471;28;19928;-89
2021/07/19 06:11:44;;;;;;;;;;;17.00;99.90;;;;;;5073827;28;19947;-87
2021/07/19 06:14:10;;;;;;;;;;;17.10;99.90;;;;;;5091433;28;19928;-87
2021/07/19 06:16:35;;;;;;;;;;;17.00;99.90;;;;;;5051735;28;19935;-87
2021/07/19 06:19:02;;;;;;;;;;;17.10;99.90;;;;;;5073752;28;19939;-87
2021/07/19 06:21:29;;;;;;;;;;;17.10;99.90;;;;;;5049818;28;19931;-86
2021/07/19 06:23:54;;;;;;;;;;;17.20;99.90;;;;;;5071727;28;20295;-87
2021/07/19 06:26:20;;;;;;;;;;;17.20;99.90;;;;;;5069987;28;19932;-87
2021/07/19 06:28:46;;;;;;;;;;;17.30;99.90;;;;;;5071589;28;19928;-87
2021/07/19 06:31:12;;;;;;;;;;;17.20;99.90;;;;;;5071647;28;19931;-86
2021/07/19 06:33:37;;;;;;;;;;;17.30;99.90;;;;;;5087965;28;19976;-86
2021/07/19 06:36:03;;;;;;;;;;;17.30;99.90;;;;;;5090978;28;19970;-86
2021/07/19 06:38:29;;;;;;;;;;;17.40;99.90;;;;;;5070507;28;20291;-86
2021/07/19 06:40:54;;;;;;;;;;;17.40;99.90;;;;;;5072300;28;20273;-86
2021/07/19 06:43:20;;;;;;;;;;;17.50;99.90;;;;;;5072095;28;19931;-88
2021/07/19 06:45:47;;;;;;;;;;;17.50;99.90;;;;;;5090223;28;19950;-87
2021/07/19 06:48:13;;;;;;;;;;;17.50;99.90;;;;;;5072294;28;20414;-87
2021/07/19 06:50:39;;;;;;;;;;;17.60;99.90;;;;;;5070503;28;20446;-85
2021/07/19 06:53:05;;;;;;;;;;;17.70;99.90;;;;;;5055175;28;19924;-88
2021/07/19 06:55:30;;;;;;;;;;;17.80;99.90;;;;;;5089500;28;19939;-86
2021/07/19 06:57:56;;;;;;;;;;;17.80;99.90;;;;;;5082137;28;20394;-87
2021/07/19 07:00:21;;;;;;;;;;;17.80;99.90;;;;;;5067786;28;19928;-89
2021/07/19 07:02:47;;;;;;;;;;;17.90;99.90;;;;;;5089802;28;19924;-86
2021/07/19 07:05:13;;;;;;;;;;;17.90;99.90;;;;;;5089320;28;19928;-86
2021/07/19 07:07:38;;;;;;;;;;;17.90;99.90;;;;;;5053925;28;19931;-86
2021/07/19 07:10:06;;;;;;;;;;;17.90;99.90;;;;;;5070574;28;20405;-86
2021/07/19 07:12:32;;;;;;;;;;;17.80;99.90;;;;;;5070069;28;19947;-86
2021/07/19 07:14:58;;;;;;;;;;;17.80;99.90;;;;;;5071185;28;20367;-85
2021/07/19 07:17:23;;;;;;;;;;;17.70;99.90;;;;;;5054497;28;19928;-87
2021/07/19 07:19:51;;;;;;;;;;;17.60;99.90;;;;;;5064592;28;19938;-86
2021/07/19 07:22:16;;;;;;;;;;;17.50;99.90;;;;;;5078772;28;20295;-85
2021/07/19 07:24:42;;;;;;;;;;;17.50;99.90;;;;;;5070544;28;19921;-85
2021/07/19 07:27:09;;;;;;;;;;;17.40;99.90;;;;;;5071066;28;19925;-85
2021/07/19 07:29:35;;;;;;;;;;;17.50;99.90;;;;;;5086882;28;19928;-85
2021/07/19 07:32:01;;;;;;;;;;;17.50;99.90;;;;;;5089388;28;20399;-84
2021/07/19 07:34:26;;;;;;;;;;;17.60;99.90;;;;;;5088780;28;19981;-86
2021/07/19 07:36:52;;;;;;;;;;;17.70;99.90;;;;;;5089583;28;20272;-84
2021/07/19 07:39:17;;;;;;;;;;;17.80;99.90;;;;;;5070235;28;19979;-86
2021/07/19 07:41:43;;;;;;;;;;;17.80;99.90;;;;;;5086196;28;20368;-85
2021/07/19 07:44:10;;;;;;;;;;;17.90;99.90;;;;;;5086705;28;20259;-85
2021/07/19 07:46:37;;;;;;;;;;;17.90;99.90;;;;;;5087690;28;20027;-85
2021/07/19 07:49:03;;;;;;;;;;;18.00;99.90;;;;;;5069230;28;19928;-85
2021/07/19 07:51:28;;;;;;;;;;;18.20;99.90;;;;;;5087123;28;20288;-85
2021/07/19 07:53:54;;;;;;;;;;;18.30;99.90;;;;;;5085603;28;19928;-86
2021/07/19 07:56:20;;;;;;;;;;;18.50;99.90;;;;;;5054113;28;19928;-85
2021/07/19 07:58:45;;;;;;;;;;;18.50;99.90;;;;;;5069856;28;19927;-85
2021/07/19 08:01:11;;;;;;;;;;;18.40;99.90;;;;;;5069263;28;19936;-85
2021/07/19 08:03:37;;;;;;;;;;;18.40;99.90;;;;;;5096414;28;19924;-86
2021/07/19 08:06:02;;;;;;;;;;;18.40;99.90;;;;;;5088427;28;19931;-87
2021/07/19 08:08:28;;;;;;;;;;;18.50;99.90;;;;;;5071110;28;19973;-89
2021/07/19 08:10:54;;;;;;;;;;;18.50;99.90;;;;;;5068303;28;20298;-87
2021/07/19 08:13:20;;;;;;;;;;;18.50;99.90;;;;;;5088161;28;20018;-87
2021/07/19 08:15:47;;;;;;;;;;;18.50;99.90;;;;;;5091680;28;20387;-86
2021/07/19 08:18:16;;;;;;;;;;;18.50;99.90;;;;;;5065351;28;19936;-86
2021/07/19 08:20:42;;;;;;;;;;;18.40;99.90;;;;;;5091587;28;19928;-88
2021/07/19 08:23:08;;;;;;;;;;;18.40;99.90;;;;;;5093568;28;19930;-86
2021/07/19 08:25:34;;;;;;;;;;;18.40;99.90;;;;;;5092704;28;19928;-87
2021/07/19 08:27:59;;;;;;;;;;;18.50;99.90;;;;;;5058222;28;20011;-86
2021/07/19 08:30:25;;;;;;;;;;;18.50;99.90;;;;;;5089313;28;19924;-86
2021/07/19 08:32:51;;;;;;;;;;;18.70;99.90;;;;;;5074786;28;20374;-86
2021/07/19 08:35:17;;;;;;;;;;;18.70;99.90;;;;;;5093313;28;19924;-86
2021/07/19 08:37:47;;;;;;;;;;;18.90;99.90;;;;;;5074064;28;20379;-87
2021/07/19 08:40:14;;;;;;;;;;;19.20;99.90;;;;;;5093147;28;19924;-86
2021/07/19 08:42:40;;;;;;;;;;;19.20;99.90;;;;;;5074504;28;20482;-86
2021/07/19 08:45:06;;;;;;;;;;;19.20;99.90;;;;;;5074856;28;20023;-86
2021/07/19 08:47:35;;;;;;;;;;;19.20;99.90;;;;;;5057908;28;19925;-90
2021/07/19 08:50:01;;;;;;;;;;;19.10;99.90;;;;;;5089751;28;19928;-86
2021/07/19 08:52:26;;;;;;;;;;;19.10;99.90;;;;;;5067635;28;20062;-87
2021/07/19 08:54:52;;;;;;;;;;;19.00;99.90;;;;;;5089076;28;20408;-86
2021/07/19 08:57:19;;;;;;;;;;;19.10;99.90;;;;;;5057887;28;19928;-87
2021/07/19 08:59:46;;;;;;;;;;;19.10;99.90;;;;;;5086756;28;19925;-88
2021/07/19 09:02:11;;;;;;;;;;;19.10;99.90;;;;;;5092854;28;20424;-86
2021/07/19 09:04:37;;;;;;;;;;;19.10;99.90;;;;;;5073747;28;19924;-87
2021/07/19 09:07:03;;;;;;;;;;;19.10;99.90;;;;;;5063086;28;19924;-86
2021/07/19 09:09:30;;;;;;;;;;;19.00;99.90;;;;;;5062330;28;19924;-86
2021/07/19 09:11:57;;;;;;;;;;;18.90;99.90;;;;;;5092034;28;19928;-87
2021/07/19 09:14:23;;;;;;;;;;;18.80;99.90;;;;;;5092327;28;19928;-86
2021/07/19 09:16:49;;;;;;;;;;;18.80;99.90;;;;;;5073865;28;20318;-87
2021/07/19 09:19:16;;;;;;;;;;;18.70;99.90;;;;;;5074958;28;19928;-86
2021/07/19 09:21:42;;;;;;;;;;;18.60;99.90;;;;;;5075831;28;19928;-86
2021/07/19 09:24:10;;;;;;;;;;;18.80;99.90;;;;;;5098696;28;19924;-87
2021/07/19 09:26:36;;;;;;;;;;;18.80;99.90;;;;;;5073965;28;19928;-89
2021/07/19 09:29:04;;;;;;;;;;;18.70;99.90;;;;;;5074031;28;19932;-87
2021/07/19 09:31:32;;;;;;;;;;;18.70;99.90;;;;;;5092280;28;19967;-86
2021/07/19 09:33:59;;;;;;;;;;;18.80;99.90;;;;;;5073719;28;20380;-86
2021/07/19 09:36:26;;;;;;;;;;;18.80;99.90;;;;;;5091928;28;19953;-87
2021/07/19 09:39:08;;;;;;;;;;;18.70;99.90;;;;;;5091480;28;19956;-85
2021/07/19 09:41:34;;;;;;;;;;;18.70;99.90;;;;;;5077743;28;19985;-86
2021/07/19 09:44:05;;;;;;;;;;;18.90;99.90;;;;;;5084453;28;19928;-85
2021/07/19 09:46:34;;;;;;;;;;;19.00;99.90;;;;;;5073802;28;20012;-86
2021/07/19 09:49:00;;;;;;;;;;;19.20;99.90;;;;;;5091011;28;19928;-85
2021/07/19 09:51:27;;;;;;;;;;;19.20;99.90;;;;;;5091512;28;20390;-87
2021/07/19 09:53:52;;;;;;;;;;;19.20;99.90;;;;;;5091477;28;19970;-86
2021/07/19 09:56:19;;;;;;;;;;;19.40;99.90;;;;;;5092070;28;19951;-86
2021/07/19 09:58:49;;;;;;;;;;;19.60;99.90;;;;;;5089738;28;19980;-85
2021/07/19 10:01:25;;;;;;;;;;;19.50;99.90;;;;;;5091290;28;19924;-86
2021/07/19 10:04:01;;;;;;;;;;;19.50;99.90;;;;;;5090575;28;20005;-86
2021/07/19 10:06:27;;;;;;;;;;;19.60;99.90;;;;;;5073774;28;19985;-88
2021/07/19 10:08:56;;;;;;;;;;;19.70;99.90;;;;;;5092051;28;19924;-86
2021/07/19 10:11:22;;;;;;;;;;;19.80;99.90;;;;;;5072945;28;20387;-85
2021/07/19 10:13:49;;;;;;;;;;;19.70;99.90;;;;;;5090366;28;19928;-85
2021/07/19 10:16:16;;;;;;;;;;;19.90;99.90;;;;;;5072205;28;19924;-86
2021/07/19 10:18:44;;;;;;;;;;;19.90;99.90;;;;;;5071916;28;19928;-88
2021/07/19 10:21:10;;;;;;;;;;;19.80;99.90;;;;;;5072642;28;19924;-85
2021/07/19 10:23:36;;;;;;;;;;;19.80;99.90;;;;;;5073037;28;19928;-85
2021/07/19 10:26:02;;;;;;;;;;;20.00;99.90;;;;;;5071700;28;20148;-85
2021/07/19 10:28:28;;;;;;;;;;;20.10;99.90;;;;;;5090237;28;20014;-85
2021/07/19 10:30:56;;;;;;;;;;;20.10;99.90;;;;;;5071725;28;19928;-85
2021/07/19 10:33:22;;;;;;;;;;;20.00;99.90;;;;;;5091104;28;19928;-84
2021/07/19 10:35:49;;;;;;;;;;;20.10;99.90;;;;;;5089288;28;20434;-85
2021/07/19 10:38:17;;;;;;;;;;;20.00;99.90;;;;;;5072981;28;19925;-84
2021/07/19 10:40:43;;;;;;;;;;;19.80;99.90;;;;;;5086774;28;19924;-90
2021/07/19 10:43:11;;;;;;;;;;;19.70;99.90;;;;;;5090104;28;19980;-88
2021/07/19 10:45:37;;;;;;;;;;;19.60;99.90;;;;;;5067966;28;19931;-86
2021/07/19 10:48:03;;;;;;;;;;;19.50;99.90;;;;;;5090671;28;19941;-86
2021/07/19 10:50:36;;;;;;;;;;;19.20;99.90;;;;;;5059890;28;19930;-86
2021/07/19 10:53:01;;;;;;;;;;;19.00;99.90;;;;;;5059843;28;19928;-87
2021/07/19 10:55:31;;;;;;;;;;;18.90;99.90;;;;;;5051611;28;19931;-86
2021/07/19 10:58:01;;;;;;;;;;;18.90;99.90;;;;;;5049751;28;19933;-87
2021/07/19 11:00:27;;;;;;;;;;;18.80;99.90;;;;;;5062266;28;19925;-86
2021/07/19 11:03:03;;;;;;;;;;;18.60;99.90;;;;;;5037323;28;19929;-87
2021/07/19 11:05:36;;;;;;;;;;;18.60;99.90;;;;;;5058677;28;19925;-87
2021/07/19 11:08:02;;;;;;;;;;;18.60;99.90;;;;;;5057664;28;20018;-86
2021/07/19 11:10:28;;;;;;;;;;;18.60;99.90;;;;;;5051684;28;19924;-86
2021/07/19 11:12:56;;;;;;;;;;;18.60;99.90;;;;;;5054616;28;19983;-87
2021/07/19 11:15:33;;;;;;;;;;;18.70;99.90;;;;;;5052164;28;19978;-86
2021/07/19 11:17:58;;;;;;;;;;;18.70;99.90;;;;;;5054188;28;19925;-87
2021/07/19 11:20:24;;;;;;;;;;;18.90;99.90;;;;;;5064648;28;19925;-85
2021/07/19 11:22:59;;;;;;;;;;;18.80;99.90;;;;;;5048444;28;20015;-87
2021/07/19 11:25:25;;;;;;;;;;;18.90;99.90;;;;;;5049141;28;19960;-84
2021/07/19 11:27:50;;;;;;;;;;;19.00;99.90;;;;;;5064110;28;20006;-86
2021/07/19 11:30:19;;;;;;;;;;;19.10;99.90;;;;;;5052917;28;19924;-85
2021/07/19 11:32:45;;;;;;;;;;;19.00;99.90;;;;;;5049304;28;19924;-85
2021/07/19 11:35:11;;;;;;;;;;;18.90;99.90;;;;;;5046770;28;19928;-86
2021/07/19 11:37:38;;;;;;;;;;;18.80;99.90;;;;;;5064432;28;19947;-88
2021/07/19 11:40:05;;;;;;;;;;;18.50;99.90;;;;;;5058877;28;20015;-86
2021/07/19 11:42:41;;;;;;;;;;;18.40;99.90;;;;;;5071692;28;19925;-87
2021/07/19 11:45:09;;;;;;;;;;;18.50;99.90;;;;;;5073690;28;19935;-87
2021/07/19 11:47:42;;;;;;;;;;;18.60;99.90;;;;;;5046904;28;19925;-87
2021/07/19 11:50:08;;;;;;;;;;;18.60;99.90;;;;;;5045796;28;19921;-86
2021/07/19 11:52:34;;;;;;;;;;;18.60;99.90;;;;;;5047833;28;19929;-87
2021/07/19 11:55:00;;;;;;;;;;;18.80;99.90;;;;;;5057418;28;19978;-86
2021/07/19 11:57:26;;;;;;;;;;;18.90;99.90;;;;;;5052319;28;19928;-87
2021/07/19 11:59:51;;;;;;;;;;;19.00;99.90;;;;;;5052795;28;20019;-87
2021/07/19 12:02:27;;;;;;;;;;;19.40;99.90;;;;;;5051820;28;19928;-87
2021/07/19 12:04:53;;;;;;;;;;;19.50;99.90;;;;;;5053943;28;19925;-88
2021/07/19 12:07:23;;;;;;;;;;;19.40;99.90;;;;;;5051291;28;19994;-87
2021/07/19 12:09:57;;;;;;;;;;;19.40;99.90;;;;;;5061528;28;19928;-86
2021/07/19 12:12:23;;;;;;;;;;;19.50;99.90;;;;;;5054439;28;19971;-86
2021/07/19 12:14:58;;;;;;;;;;;19.50;99.90;;;;;;5051863;28;20446;-86
2021/07/19 12:17:26;;;;;;;;;;;19.50;99.90;;;;;;5052535;28;20299;-86
2021/07/19 12:19:52;;;;;;;;;;;19.60;99.90;;;;;;5051662;28;20381;-87
2021/07/19 12:22:18;;;;;;;;;;;19.90;99.90;;;;;;5067920;28;19951;-85
2021/07/19 12:24:43;;;;;;;;;;;19.90;99.90;;;;;;5052656;28;20292;-86
2021/07/19 12:27:09;;;;;;;;;;;20.00;99.90;;;;;;5066127;28;19970;-86
2021/07/19 12:29:37;;;;;;;;;;;20.00;99.90;;;;;;5051597;28;19948;-86
2021/07/19 12:32:04;;;;;;;;;;;20.10;99.90;;;;;;5050381;28;19982;-87
2021/07/19 12:34:31;;;;;;;;;;;20.20;99.90;;;;;;5068037;28;19928;-86
2021/07/19 12:36:58;;;;;;;;;;;20.30;99.90;;;;;;5051833;28;20368;-88
2021/07/19 12:39:24;;;;;;;;;;;20.20;99.90;;;;;;5050926;28;19929;-88
2021/07/19 12:41:51;;;;;;;;;;;20.30;99.90;;;;;;5051014;28;19956;-86
2021/07/19 12:44:18;;;;;;;;;;;20.00;99.90;;;;;;5067077;28;20233;-85
2021/07/19 12:46:45;;;;;;;;;;;19.80;99.90;;;;;;5051839;28;19971;-86
2021/07/19 12:49:11;;;;;;;;;;;19.80;99.90;;;;;;5053131;28;19929;-85
2021/07/19 12:51:37;;;;;;;;;;;19.80;99.90;;;;;;5092775;28;20435;-86
2021/07/19 12:54:04;;;;;;;;;;;20.40;99.90;;;;;;5088414;28;19934;-86
2021/07/19 12:56:30;;;;;;;;;;;20.40;99.90;;;;;;5092385;28;19932;-88
2021/07/19 12:59:01;;;;;;;;;;;20.50;99.90;;;;;;5059410;28;20403;-88
2021/07/19 13:01:31;;;;;;;;;;;20.50;99.90;;;;;;5092013;28;19985;-85
2021/07/19 13:04:04;;;;;;;;;;;20.40;99.90;;;;;;5056807;28;20306;-87
2021/07/19 13:06:30;;;;;;;;;;;20.70;99.90;;;;;;5081620;28;20035;-87
2021/07/19 13:08:55;;;;;;;;;;;20.40;99.90;;;;;;5091409;28;20023;-87
2021/07/19 13:11:21;;;;;;;;;;;20.20;99.90;;;;;;5070703;28;20356;-86
2021/07/19 13:13:47;;;;;;;;;;;20.00;99.90;;;;;;5089307;28;20363;-87
2021/07/19 13:16:20;;;;;;;;;;;20.30;99.90;;;;;;5091435;28;20275;-86
2021/07/19 13:18:55;;;;;;;;;;;20.20;99.90;;;;;;5091785;28;19939;-86
2021/07/19 13:21:21;;;;;;;;;;;20.50;99.90;;;;;;5072846;28;20322;-86
2021/07/19 13:23:46;;;;;;;;;;;20.50;99.90;;;;;;5091728;28;20405;-85
2021/07/19 13:26:15;;;;;;;;;;;20.60;99.90;;;;;;5086273;28;19932;-86
2021/07/19 13:28:41;;;;;;;;;;;20.60;99.90;;;;;;5091232;28;19968;-86
2021/07/19 13:31:07;;;;;;;;;;;20.40;99.90;;;;;;5072444;28;19963;-86
2021/07/19 13:33:34;;;;;;;;;;;20.70;99.90;;;;;;5056031;28;19924;-87
2021/07/19 13:36:00;;;;;;;;;;;20.80;99.90;;;;;;5088520;28;19931;-89
2021/07/19 13:38:36;;;;;;;;;;;21.10;99.90;;;;;;5089976;28;19924;-86
2021/07/19 13:41:02;;;;;;;;;;;21.00;99.90;;;;;;5088737;28;19998;-88
2021/07/19 13:43:27;;;;;;;;;;;21.00;99.90;;;;;;5090699;28;20597;-86
2021/07/19 13:45:57;;;;;;;;;;;21.20;99.90;;;;;;5057383;28;19935;-86
2021/07/19 13:48:26;;;;;;;;;;;21.10;99.90;;;;;;5081838;28;20028;-87
2021/07/19 13:50:52;;;;;;;;;;;20.80;99.90;;;;;;5073854;28;19928;-86
2021/07/19 13:53:18;;;;;;;;;;;20.80;99.90;;;;;;5055296;28;20049;-87
2021/07/19 13:55:51;;;;;;;;;;;20.90;99.90;;;;;;5085079;28;19924;-86
2021/07/19 13:58:17;;;;;;;;;;;20.90;99.90;;;;;;5055531;28;20299;-87
2021/07/19 14:00:42;;;;;;;;;;;20.80;99.90;;;;;;5091244;28;19924;-85
2021/07/19 14:03:08;;;;;;;;;;;20.70;99.90;;;;;;5056664;28;19924;-86
2021/07/19 14:05:34;;;;;;;;;;;20.60;99.90;;;;;;5073030;28;19934;-88
2021/07/19 14:07:59;;;;;;;;;;;20.70;99.90;;;;;;5089780;28;19963;-87
2021/07/19 14:10:25;;;;;;;;;;;20.70;99.90;;;;;;5073628;28;20008;-89
2021/07/19 14:12:51;;;;;;;;;;;20.80;99.90;;;;;;5093522;28;19924;-87
2021/07/19 14:15:17;;;;;;;;;;;21.10;99.90;;;;;;5090337;28;19928;-86